Sunday, July 22, 2018, 10:13 AM EDT
Back to Local

KASH, Nashua, Boire Field Airport

Location: Nashua, NH, United States Lat: 42.782
Local Time: 10:13 AM EDT (14:13 GMT) Lon: -71.515
Time Zone: US/Eastern Elev: 200 ft

Show me the last for .
Show Decoded

2018-07-22 09:56 METAR KASH 221356Z 10010KT 2 1/2SM -RA BR OVC007 19/19 A3008 RMK AO2 SFC VIS 6
                 SLP196 P0001 T01940194 =
2018-07-22 08:56 METAR KASH 221256Z 08006KT 2 1/2SM -RA BR OVC007 18/18 A3008 RMK AO2 SFC VIS 3
                 SLP194 P0001 T01830183 =
2018-07-22 08:48 METAR KASH 221248Z 09008KT 2 1/2SM -RA BR OVC007 19/19 A3008 RMK AO2 SFC VIS 5
                 P0001 =
2018-07-22 07:56 METAR KASH 221156Z 09009KT 7SM -RA OVC005 18/18 A3009 RMK AO2 SLP197 P0000 60000
                 T01780178 10183 20178 55002 =
2018-07-22 07:40 METAR KASH 221140Z 07007KT 2 1/2SM -RA BR OVC005 18/18 A3009 RMK AO2 VIS 1 1/2V5
                 P0000 =
2018-07-22 06:56 METAR KASH 221056Z 08006G14KT 10SM -RA OVC009 18/18 A3009 RMK AO2 RAB11 SLP197
                 P0000 T01830178 =
2018-07-22 05:56 METAR KASH 220956Z AUTO VRB06KT 10SM OVC009 18/17 A3009 RMK AO2 RAB27E53 SLP196
                 P0000 T01780172 =
2018-07-22 05:23 METAR KASH 220923Z AUTO VRB03KT 10SM OVC009 18/17 A3010 RMK AO2 =
2018-07-22 04:56 METAR KASH 220856Z AUTO 07007KT 10SM OVC011 18/17 A3009 RMK AO2 SLP199 T01830167
                 57006 =
2018-07-22 03:56 METAR KASH 220756Z AUTO 07003KT 10SM OVC011 18/17 A3010 RMK AO2 SLP201 T01780167
                 =
2018-07-22 02:56 METAR KASH 220656Z AUTO 00000KT 10SM OVC013 18/16 A3010 RMK AO2 SLP202 T01780161
                 =
2018-07-22 01:56 METAR KASH 220556Z AUTO VRB04KT 10SM OVC017 18/16 A3011 RMK AO2 SLP205 T01780161
                 10206 20178 56012 =
2018-07-22 00:56 METAR KASH 220456Z AUTO 00000KT 10SM OVC019 18/17 A3012 RMK AO2 SLP207 T01780167
                 =
2018-07-22 00:25 METAR KASH 220425Z AUTO 00000KT 10SM BKN019 18/17 A3012 RMK AO2 =
2018-07-21 23:56 METAR KASH 220356Z AUTO 04004KT 10SM FEW021 18/17 A3013 RMK AO2 SLP210 T01780167
                 402670144 =
2018-07-21 22:56 METAR KASH 220256Z AUTO 08004KT 10SM BKN023 OVC060 19/17 A3015 RMK AO2 SLP217
                 T01890167 50001 =
2018-07-21 21:56 METAR KASH 220156Z AUTO 09004KT 10SM OVC021 19/16 A3015 RMK AO2 SLP219 T01940156
                 =
2018-07-21 21:38 METAR KASH 220138Z AUTO 08005KT 10SM BKN023 19/16 A3015 RMK AO2 =
2018-07-21 20:56 METAR KASH 220056Z 09005KT 10SM FEW027 20/15 A3015 RMK AO2 SLP219 T02000150 =
2018-07-21 19:56 METAR KASH 212356Z 12010G14KT 10SM FEW028 21/15 A3014 RMK AO2 SLP217 T02060150
                 10267 20206 53012 =
2018-07-21 18:56 METAR KASH 212256Z 12010KT 10SM SCT035 23/16 A3013 RMK AO2 SLP211 T02330161 =
2018-07-21 17:56 METAR KASH 212156Z 11010G16KT 10SM SCT045 25/16 A3012 RMK AO2 SLP207 T02500156 =
2018-07-21 16:56 METAR KASH 212056Z 13010G14KT 10SM SCT050 26/16 A3011 RMK AO2 SLP205 T02610156
                 56013 =
2018-07-21 15:56 METAR KASH 211956Z COR 10010G20KT 10SM SCT050 26/13 A3012 RMK AO2 SLP207
                 T02610128 =
2018-07-21 14:56 METAR KASH 211856Z COR 10010G14KT 10SM SCT060 27/12 A3014 RMK AO2 SLP213
                 T02670122 =
2018-07-21 13:56 METAR KASH 211756Z COR 09009G15KT 10SM SCT060 26/13 A3015 RMK AO2 SLP218
                 T02610133 10261 20172 58008 =
2018-07-21 12:56 METAR KASH 211656Z 13011G15KT 10SM FEW040 SCT130 26/13 A3016 RMK AO2 SLP221
                 T02560128 =
2018-07-21 11:56 METAR KASH 211556Z 09008G14KT 10SM SCT040 SCT200 25/13 A3017 RMK AO2 SLP223
                 T02500128 =
2018-07-21 10:56 METAR KASH 211456Z 11007KT 10SM SCT020 24/13 A3017 RMK AO2 SLP226 T02390133
                 58002 =

Support USWX by starting your Amazon purchase here.